sensor_id;sensor_type;location;lat;lon;timestamp;temperature;humidity
15152;DHT22;7676;50.900;6.234;2022-10-31T00:00:28;19.20;99.90
15152;DHT22;7676;50.900;6.234;2022-10-31T00:05:31;19.30;99.90
15152;DHT22;7676;50.900;6.234;2022-10-31T00:10:33;19.20;99.90
15152;DHT22;7676;50.900;6.234;2022-10-31T00:15:36;19.20;99.90
15152;DHT22;7676;50.900;6.234;2022-10-31T00:20:39;19.30;99.90
15152;DHT22;7676;50.900;6.234;2022-10-31T00:25:41;19.30;99.90
15152;DHT22;7676;50.900;6.234;2022-10-31T00:30:44;19.20;99.90
15152;DHT22;7676;50.900;6.234;2022-10-31T00:35:50;19.20;99.90
15152;DHT22;7676;50.900;6.234;2022-10-31T00:40:52;19.40;99.90
15152;DHT22;7676;50.900;6.234;2022-10-31T00:45:55;19.30;99.90
15152;DHT22;7676;50.900;6.234;2022-10-31T00:50:59;19.30;99.90
15152;DHT22;7676;50.900;6.234;2022-10-31T00:56:02;19.40;99.90
15152;DHT22;7676;50.900;6.234;2022-10-31T01:01:04;19.30;99.90
15152;DHT22;7676;50.900;6.234;2022-10-31T01:06:11;19.40;99.90
15152;DHT22;7676;50.900;6.234;2022-10-31T01:16:18;19.10;99.90
15152;DHT22;7676;50.900;6.234;2022-10-31T01:21:27;19.10;99.90
15152;DHT22;7676;50.900;6.234;2022-10-31T01:26:33;19.30;99.90
15152;DHT22;7676;50.900;6.234;2022-10-31T01:31:38;19.20;99.90
15152;DHT22;7676;50.900;6.234;2022-10-31T01:36:40;19.10;99.90
15152;DHT22;7676;50.900;6.234;2022-10-31T01:41:47;18.90;99.90
15152;DHT22;7676;50.900;6.234;2022-10-31T01:47:11;18.90;99.90
15152;DHT22;7676;50.900;6.234;2022-10-31T01:52:35;19.00;99.90
15152;DHT22;7676;50.900;6.234;2022-10-31T01:57:43;18.90;99.90
15152;DHT22;7676;50.900;6.234;2022-10-31T02:02:48;18.90;99.90
15152;DHT22;7676;50.900;6.234;2022-10-31T02:07:55;18.90;99.90
15152;DHT22;7676;50.900;6.234;2022-10-31T02:13:06;18.80;99.90
15152;DHT22;7676;50.900;6.234;2022-10-31T02:18:14;18.70;99.90
15152;DHT22;7676;50.900;6.234;2022-10-31T02:29:29;18.40;99.90
15152;DHT22;7676;50.900;6.234;2022-10-31T02:39:52;18.60;99.90
15152;DHT22;7676;50.900;6.234;2022-10-31T02:45:30;18.70;99.90
15152;DHT22;7676;50.900;6.234;2022-10-31T02:50:39;18.60;99.90
15152;DHT22;7676;50.900;6.234;2022-10-31T02:55:50;18.30;99.90
15152;DHT22;7676;50.900;6.234;2022-10-31T03:01:16;18.20;99.90
15152;DHT22;7676;50.900;6.234;2022-10-31T03:11:43;18.20;99.90
15152;DHT22;7676;50.900;6.234;2022-10-31T03:16:54;18.30;99.90
15152;DHT22;7676;50.900;6.234;2022-10-31T03:22:43;18.10;99.90
15152;DHT22;7676;50.900;6.234;2022-10-31T03:27:27;18.00;99.90
15152;DHT22;7676;50.900;6.234;2022-10-31T03:32:41;18.10;99.90
15152;DHT22;7676;50.900;6.234;2022-10-31T03:37:46;18.00;99.90
15152;DHT22;7676;50.900;6.234;2022-10-31T03:43:00;17.90;99.90
15152;DHT22;7676;50.900;6.234;2022-10-31T03:48:07;17.70;99.90
15152;DHT22;7676;50.900;6.234;2022-10-31T03:53:14;18.00;99.90
15152;DHT22;7676;50.900;6.234;2022-10-31T03:58:29;17.90;99.90
15152;DHT22;7676;50.900;6.234;2022-10-31T04:03:36;17.80;99.90
15152;DHT22;7676;50.900;6.234;2022-10-31T04:09:01;17.90;99.90
15152;DHT22;7676;50.900;6.234;2022-10-31T04:14:06;17.70;99.90
15152;DHT22;7676;50.900;6.234;2022-10-31T04:19:11;17.70;99.90
15152;DHT22;7676;50.900;6.234;2022-10-31T04:24:14;17.60;99.90
15152;DHT22;7676;50.900;6.234;2022-10-31T04:29:17;17.50;99.90
15152;DHT22;7676;50.900;6.234;2022-10-31T04:34:19;17.60;99.90
15152;DHT22;7676;50.900;6.234;2022-10-31T04:39:21;17.20;99.90
15152;DHT22;7676;50.900;6.234;2022-10-31T04:44:50;17.30;99.90
15152;DHT22;7676;50.900;6.234;2022-10-31T04:49:53;17.40;99.90
15152;DHT22;7676;50.900;6.234;2022-10-31T04:54:56;17.40;99.90
15152;DHT22;7676;50.900;6.234;2022-10-31T05:00:24;16.70;99.90
15152;DHT22;7676;50.900;6.234;2022-10-31T05:05:29;17.30;99.90
15152;DHT22;7676;50.900;6.234;2022-10-31T05:10:34;17.40;99.90
15152;DHT22;7676;50.900;6.234;2022-10-31T05:15:38;17.40;99.90
15152;DHT22;7676;50.900;6.234;2022-10-31T05:20:59;17.40;99.90
15152;DHT22;7676;50.900;6.234;2022-10-31T05:26:09;17.30;99.90
15152;DHT22;7676;50.900;6.234;2022-10-31T05:31:12;16.90;99.90
15152;DHT22;7676;50.900;6.234;2022-10-31T05:36:16;17.20;99.90
15152;DHT22;7676;50.900;6.234;2022-10-31T05:41:32;17.00;99.90
15152;DHT22;7676;50.900;6.234;2022-10-31T05:46:39;17.10;99.90
15152;DHT22;7676;50.900;6.234;2022-10-31T05:52:14;17.00;99.90
15152;DHT22;7676;50.900;6.234;2022-10-31T05:57:25;17.00;99.90
15152;DHT22;7676;50.900;6.234;2022-10-31T06:02:28;16.60;99.90
15152;DHT22;7676;50.900;6.234;2022-10-31T06:07:55;16.70;99.90
15152;DHT22;7676;50.900;6.234;2022-10-31T06:12:58;16.40;99.90
15152;DHT22;7676;50.900;6.234;2022-10-31T06:18:15;16.40;99.90
15152;DHT22;7676;50.900;6.234;2022-10-31T06:23:23;16.20;99.90
15152;DHT22;7676;50.900;6.234;2022-10-31T06:28:33;16.10;99.90
15152;DHT22;7676;50.900;6.234;2022-10-31T06:33:47;15.70;99.90
15152;DHT22;7676;50.900;6.234;2022-10-31T06:38:49;15.90;99.90
15152;DHT22;7676;50.900;6.234;2022-10-31T06:43:55;15.70;99.90
15152;DHT22;7676;50.900;6.234;2022-10-31T06:49:16;15.70;99.90
15152;DHT22;7676;50.900;6.234;2022-10-31T06:54:27;15.20;99.90
15152;DHT22;7676;50.900;6.234;2022-10-31T06:59:30;14.90;99.90
15152;DHT22;7676;50.900;6.234;2022-10-31T07:04:53;14.80;99.90
15152;DHT22;7676;50.900;6.234;2022-10-31T07:09:55;15.20;99.90
15152;DHT22;7676;50.900;6.234;2022-10-31T07:15:14;15.40;99.90
15152;DHT22;7676;50.900;6.234;2022-10-31T07:20:18;15.50;99.90
15152;DHT22;7676;50.900;6.234;2022-10-31T07:25:22;15.20;99.90
15152;DHT22;7676;50.900;6.234;2022-10-31T07:30:40;14.80;99.90
15152;DHT22;7676;50.900;6.234;2022-10-31T07:35:43;14.60;99.90
15152;DHT22;7676;50.900;6.234;2022-10-31T07:40:51;14.60;99.90
15152;DHT22;7676;50.900;6.234;2022-10-31T07:45:55;14.50;99.90
15152;DHT22;7676;50.900;6.234;2022-10-31T07:51:17;14.70;99.90
15152;DHT22;7676;50.900;6.234;2022-10-31T07:56:38;14.50;99.90
15152;DHT22;7676;50.900;6.234;2022-10-31T08:01:41;14.70;99.90
15152;DHT22;7676;50.900;6.234;2022-10-31T08:07:02;14.90;99.90
15152;DHT22;7676;50.900;6.234;2022-10-31T08:12:09;14.40;99.90
15152;DHT22;7676;50.900;6.234;2022-10-31T08:17:12;14.80;99.90
15152;DHT22;7676;50.900;6.234;2022-10-31T08:22:21;14.80;99.90
15152;DHT22;7676;50.900;6.234;2022-10-31T08:27:24;14.60;99.90
15152;DHT22;7676;50.900;6.234;2022-10-31T08:32:28;14.30;99.90
15152;DHT22;7676;50.900;6.234;2022-10-31T08:38:02;14.40;99.90
15152;DHT22;7676;50.900;6.234;2022-10-31T08:43:13;14.40;99.90
15152;DHT22;7676;50.900;6.234;2022-10-31T08:48:17;14.50;99.90
15152;DHT22;7676;50.900;6.234;2022-10-31T08:53:19;14.70;99.90
15152;DHT22;7676;50.900;6.234;2022-10-31T08:58:31;14.80;99.90
15152;DHT22;7676;50.900;6.234;2022-10-31T09:03:41;14.70;99.90
15152;DHT22;7676;50.900;6.234;2022-10-31T09:08:45;14.70;99.90
15152;DHT22;7676;50.900;6.234;2022-10-31T09:13:47;14.80;99.90
15152;DHT22;7676;50.900;6.234;2022-10-31T09:18:58;14.80;99.90
15152;DHT22;7676;50.900;6.234;2022-10-31T09:24:01;15.10;99.90
15152;DHT22;7676;50.900;6.234;2022-10-31T09:29:03;15.40;99.90
15152;DHT22;7676;50.900;6.234;2022-10-31T09:34:07;15.60;99.90
15152;DHT22;7676;50.900;6.234;2022-10-31T09:39:12;15.60;99.90
15152;DHT22;7676;50.900;6.234;2022-10-31T09:44:40;15.60;99.90
15152;DHT22;7676;50.900;6.234;2022-10-31T09:50:02;15.60;99.90
15152;DHT22;7676;50.900;6.234;2022-10-31T09:55:18;15.70;99.90
15152;DHT22;7676;50.900;6.234;2022-10-31T10:00:22;15.70;99.90
15152;DHT22;7676;50.900;6.234;2022-10-31T10:05:37;15.70;99.90
15152;DHT22;7676;50.900;6.234;2022-10-31T10:11:08;15.80;99.90
15152;DHT22;7676;50.900;6.234;2022-10-31T10:22:26;16.30;99.90
15152;DHT22;7676;50.900;6.234;2022-10-31T10:27:46;16.30;99.90
15152;DHT22;7676;50.900;6.234;2022-10-31T10:32:56;16.80;99.90
15152;DHT22;7676;50.900;6.234;2022-10-31T10:43:29;19.30;99.90
15152;DHT22;7676;50.900;6.234;2022-10-31T10:49:02;16.90;99.90
15152;DHT22;7676;50.900;6.234;2022-10-31T10:59:35;16.90;99.90
15152;DHT22;7676;50.900;6.234;2022-10-31T11:04:39;16.90;99.90
15152;DHT22;7676;50.900;6.234;2022-10-31T11:09:43;17.10;99.90
15152;DHT22;7676;50.900;6.234;2022-10-31T11:14:51;17.10;99.90
15152;DHT22;7676;50.900;6.234;2022-10-31T11:25:24;17.50;99.90
15152;DHT22;7676;50.900;6.234;2022-10-31T11:30:28;17.60;99.90
15152;DHT22;7676;50.900;6.234;2022-10-31T11:35:30;17.70;99.90
15152;DHT22;7676;50.900;6.234;2022-10-31T11:40:33;17.70;99.90
15152;DHT22;7676;50.900;6.234;2022-10-31T11:45:35;17.70;99.90
15152;DHT22;7676;50.900;6.234;2022-10-31T11:50:41;17.80;99.90
15152;DHT22;7676;50.900;6.234;2022-10-31T11:55:45;17.80;99.90
15152;DHT22;7676;50.900;6.234;2022-10-31T12:00:53;17.80;99.90
15152;DHT22;7676;50.900;6.234;2022-10-31T12:06:03;17.90;99.90
15152;DHT22;7676;50.900;6.234;2022-10-31T12:27:32;18.00;99.90
15152;DHT22;7676;50.900;6.234;2022-10-31T12:32:46;17.70;99.90
15152;DHT22;7676;50.900;6.234;2022-10-31T12:38:02;17.70;99.90
15152;DHT22;7676;50.900;6.234;2022-10-31T12:43:33;17.40;99.90
15152;DHT22;7676;50.900;6.234;2022-10-31T12:54:17;17.70;99.90
15152;DHT22;7676;50.900;6.234;2022-10-31T13:14:58;17.90;99.90
15152;DHT22;7676;50.900;6.234;2022-10-31T13:25:28;17.90;99.90
15152;DHT22;7676;50.900;6.234;2022-10-31T13:30:34;17.90;99.90
15152;DHT22;7676;50.900;6.234;2022-10-31T13:35:48;17.70;99.90
15152;DHT22;7676;50.900;6.234;2022-10-31T13:40:59;17.60;99.90
15152;DHT22;7676;50.900;6.234;2022-10-31T13:51:33;17.20;99.90
15152;DHT22;7676;50.900;6.234;2022-10-31T13:56:37;17.30;99.90
15152;DHT22;7676;50.900;6.234;2022-10-31T14:02:00;17.30;99.90
15152;DHT22;7676;50.900;6.234;2022-10-31T14:07:12;17.10;99.90
15152;DHT22;7676;50.900;6.234;2022-10-31T14:12:35;17.20;99.90
15152;DHT22;7676;50.900;6.234;2022-10-31T14:17:46;17.30;99.90
15152;DHT22;7676;50.900;6.234;2022-10-31T14:22:50;17.30;99.90
15152;DHT22;7676;50.900;6.234;2022-10-31T14:27:54;17.20;99.90
15152;DHT22;7676;50.900;6.234;2022-10-31T14:33:16;17.20;99.90
15152;DHT22;7676;50.900;6.234;2022-10-31T14:54:38;17.10;99.90
15152;DHT22;7676;50.900;6.234;2022-10-31T14:59:47;17.20;99.90
15152;DHT22;7676;50.900;6.234;2022-10-31T15:04:52;17.20;99.90
15152;DHT22;7676;50.900;6.234;2022-10-31T15:10:04;17.20;99.90
15152;DHT22;7676;50.900;6.234;2022-10-31T15:15:23;17.10;99.90
15152;DHT22;7676;50.900;6.234;2022-10-31T15:20:27;17.00;99.90
15152;DHT22;7676;50.900;6.234;2022-10-31T15:25:33;17.00;99.90
15152;DHT22;7676;50.900;6.234;2022-10-31T15:30:36;17.00;99.90
15152;DHT22;7676;50.900;6.234;2022-10-31T15:35:38;17.00;99.90
15152;DHT22;7676;50.900;6.234;2022-10-31T15:40:52;17.20;99.90
15152;DHT22;7676;50.900;6.234;2022-10-31T15:45:56;17.20;99.90
15152;DHT22;7676;50.900;6.234;2022-10-31T15:50:59;17.20;99.90
15152;DHT22;7676;50.900;6.234;2022-10-31T15:56:06;17.20;99.90
15152;DHT22;7676;50.900;6.234;2022-10-31T16:01:30;17.30;99.90
15152;DHT22;7676;50.900;6.234;2022-10-31T16:06:34;17.90;99.90
15152;DHT22;7676;50.900;6.234;2022-10-31T16:11:38;18.10;99.90
15152;DHT22;7676;50.900;6.234;2022-10-31T16:16:49;18.20;99.90
15152;DHT22;7676;50.900;6.234;2022-10-31T16:22:14;18.20;99.90
15152;DHT22;7676;50.900;6.234;2022-10-31T16:27:27;18.20;99.90
15152;DHT22;7676;50.900;6.234;2022-10-31T16:32:36;18.00;99.90
15152;DHT22;7676;50.900;6.234;2022-10-31T16:37:41;17.60;99.90
15152;DHT22;7676;50.900;6.234;2022-10-31T16:42:44;17.90;99.90
15152;DHT22;7676;50.900;6.234;2022-10-31T16:47:48;18.10;99.90
15152;DHT22;7676;50.900;6.234;2022-10-31T16:52:51;18.20;99.90
15152;DHT22;7676;50.900;6.234;2022-10-31T16:58:20;18.30;99.90
15152;DHT22;7676;50.900;6.234;2022-10-31T17:03:23;18.50;99.90
15152;DHT22;7676;50.900;6.234;2022-10-31T17:08:25;18.40;99.90
15152;DHT22;7676;50.900;6.234;2022-10-31T17:13:30;18.40;99.90
15152;DHT22;7676;50.900;6.234;2022-10-31T17:18:33;18.40;99.90
15152;DHT22;7676;50.900;6.234;2022-10-31T17:23:35;18.30;99.90
15152;DHT22;7676;50.900;6.234;2022-10-31T17:28:39;18.00;99.90
15152;DHT22;7676;50.900;6.234;2022-10-31T17:33:41;17.90;99.90
15152;DHT22;7676;50.900;6.234;2022-10-31T17:38:44;17.80;99.90
15152;DHT22;7676;50.900;6.234;2022-10-31T17:43:46;17.60;99.90
15152;DHT22;7676;50.900;6.234;2022-10-31T17:48:49;17.60;99.90
15152;DHT22;7676;50.900;6.234;2022-10-31T17:53:51;17.40;99.90
15152;DHT22;7676;50.900;6.234;2022-10-31T17:58:53;17.70;99.90
15152;DHT22;7676;50.900;6.234;2022-10-31T18:03:58;17.50;99.90
15152;DHT22;7676;50.900;6.234;2022-10-31T18:09:04;17.30;99.90
15152;DHT22;7676;50.900;6.234;2022-10-31T18:14:07;17.10;99.90
15152;DHT22;7676;50.900;6.234;2022-10-31T18:19:12;17.10;99.90
15152;DHT22;7676;50.900;6.234;2022-10-31T18:24:14;16.90;99.90
15152;DHT22;7676;50.900;6.234;2022-10-31T18:29:17;17.00;99.90
15152;DHT22;7676;50.900;6.234;2022-10-31T18:34:19;16.90;99.90
15152;DHT22;7676;50.900;6.234;2022-10-31T18:39:21;16.60;99.90
15152;DHT22;7676;50.900;6.234;2022-10-31T18:44:24;16.50;99.90
15152;DHT22;7676;50.900;6.234;2022-10-31T18:49:26;16.40;99.90
15152;DHT22;7676;50.900;6.234;2022-10-31T18:54:33;16.60;99.90
15152;DHT22;7676;50.900;6.234;2022-10-31T18:59:35;16.40;99.90
15152;DHT22;7676;50.900;6.234;2022-10-31T19:04:38;16.50;99.90
15152;DHT22;7676;50.900;6.234;2022-10-31T19:09:40;16.70;99.90
15152;DHT22;7676;50.900;6.234;2022-10-31T19:14:42;16.90;99.90
15152;DHT22;7676;50.900;6.234;2022-10-31T19:19:45;16.60;99.90
15152;DHT22;7676;50.900;6.234;2022-10-31T19:24:47;16.40;99.90
15152;DHT22;7676;50.900;6.234;2022-10-31T19:29:49;15.90;99.90
15152;DHT22;7676;50.900;6.234;2022-10-31T19:34:52;15.90;99.90
15152;DHT22;7676;50.900;6.234;2022-10-31T19:39:54;16.20;99.90
15152;DHT22;7676;50.900;6.234;2022-10-31T19:44:56;15.90;99.90
15152;DHT22;7676;50.900;6.234;2022-10-31T19:49:58;16.00;99.90
15152;DHT22;7676;50.900;6.234;2022-10-31T19:55:01;16.00;99.90
15152;DHT22;7676;50.900;6.234;2022-10-31T20:00:04;16.30;99.90
15152;DHT22;7676;50.900;6.234;2022-10-31T20:05:12;16.10;99.90
15152;DHT22;7676;50.900;6.234;2022-10-31T20:10:15;16.20;99.90
15152;DHT22;7676;50.900;6.234;2022-10-31T20:15:17;16.30;99.90
15152;DHT22;7676;50.900;6.234;2022-10-31T20:20:20;16.60;99.90
15152;DHT22;7676;50.900;6.234;2022-10-31T20:25:22;16.70;99.90
15152;DHT22;7676;50.900;6.234;2022-10-31T20:30:24;16.80;99.90
15152;DHT22;7676;50.900;6.234;2022-10-31T20:35:27;16.80;99.90
15152;DHT22;7676;50.900;6.234;2022-10-31T20:40:30;16.80;99.90
15152;DHT22;7676;50.900;6.234;2022-10-31T20:45:32;16.80;99.90
15152;DHT22;7676;50.900;6.234;2022-10-31T20:50:37;16.80;99.90
15152;DHT22;7676;50.900;6.234;2022-10-31T20:55:40;16.90;99.90
15152;DHT22;7676;50.900;6.234;2022-10-31T21:00:42;16.90;99.90
15152;DHT22;7676;50.900;6.234;2022-10-31T21:06:11;17.00;99.90
15152;DHT22;7676;50.900;6.234;2022-10-31T21:11:16;17.00;99.90
15152;DHT22;7676;50.900;6.234;2022-10-31T21:16:24;17.10;99.90
15152;DHT22;7676;50.900;6.234;2022-10-31T21:21:29;17.10;99.90
15152;DHT22;7676;50.900;6.234;2022-10-31T21:26:38;17.20;99.90
15152;DHT22;7676;50.900;6.234;2022-10-31T21:31:41;17.20;99.90
15152;DHT22;7676;50.900;6.234;2022-10-31T21:36:44;17.30;99.90
15152;DHT22;7676;50.900;6.234;2022-10-31T21:46:50;17.30;99.90
15152;DHT22;7676;50.900;6.234;2022-10-31T21:51:53;17.50;99.90
15152;DHT22;7676;50.900;6.234;2022-10-31T21:56:56;17.50;99.90
15152;DHT22;7676;50.900;6.234;2022-10-31T22:01:59;17.50;99.90
15152;DHT22;7676;50.900;6.234;2022-10-31T22:07:02;17.60;99.90
15152;DHT22;7676;50.900;6.234;2022-10-31T22:12:05;17.70;99.90
15152;DHT22;7676;50.900;6.234;2022-10-31T22:17:10;17.70;99.90
15152;DHT22;7676;50.900;6.234;2022-10-31T22:22:12;17.70;99.90
15152;DHT22;7676;50.900;6.234;2022-10-31T22:27:14;17.80;99.90
15152;DHT22;7676;50.900;6.234;2022-10-31T22:32:17;17.80;99.90
15152;DHT22;7676;50.900;6.234;2022-10-31T22:37:19;17.90;99.90
15152;DHT22;7676;50.900;6.234;2022-10-31T22:42:21;17.90;99.90
15152;DHT22;7676;50.900;6.234;2022-10-31T22:47:23;17.90;99.90
15152;DHT22;7676;50.900;6.234;2022-10-31T22:52:26;17.90;99.90
15152;DHT22;7676;50.900;6.234;2022-10-31T22:57:28;18.00;99.90
15152;DHT22;7676;50.900;6.234;2022-10-31T23:02:30;17.90;99.90
15152;DHT22;7676;50.900;6.234;2022-10-31T23:07:33;17.80;99.90
15152;DHT22;7676;50.900;6.234;2022-10-31T23:12:35;17.80;99.90
15152;DHT22;7676;50.900;6.234;2022-10-31T23:17:56;17.80;99.90
15152;DHT22;7676;50.900;6.234;2022-10-31T23:22:58;17.90;99.90
15152;DHT22;7676;50.900;6.234;2022-10-31T23:28:01;18.00;99.90
15152;DHT22;7676;50.900;6.234;2022-10-31T23:33:04;17.90;99.90
15152;DHT22;7676;50.900;6.234;2022-10-31T23:38:06;18.00;99.90
15152;DHT22;7676;50.900;6.234;2022-10-31T23:43:08;18.00;99.90
15152;DHT22;7676;50.900;6.234;2022-10-31T23:48:11;18.00;99.90
15152;DHT22;7676;50.900;6.234;2022-10-31T23:53:13;18.00;99.90
15152;DHT22;7676;50.900;6.234;2022-10-31T23:58:15;18.00;99.90
